sensor_id;sensor_type;location;lat;lon;timestamp;P1;durP1;ratioP1;P2;durP2;ratioP2
31808;SDS011;18379;48.208;-1.518;2023-05-07T00:03:35;50.77;;;47.00;;
31808;SDS011;18379;48.208;-1.518;2023-05-07T00:08:38;51.97;;;47.90;;
31808;SDS011;18379;48.208;-1.518;2023-05-07T00:13:39;51.17;;;47.30;;
31808;SDS011;18379;48.208;-1.518;2023-05-07T00:18:39;53.57;;;49.10;;
31808;SDS011;18379;48.208;-1.518;2023-05-07T00:23:40;53.00;;;48.77;;
31808;SDS011;18379;48.208;-1.518;2023-05-07T00:28:41;53.43;;;49.30;;
31808;SDS011;18379;48.208;-1.518;2023-05-07T00:33:42;53.17;;;48.97;;
31808;SDS011;18379;48.208;-1.518;2023-05-07T00:38:43;55.40;;;50.93;;
31808;SDS011;18379;48.208;-1.518;2023-05-07T00:43:44;54.87;;;50.37;;
31808;SDS011;18379;48.208;-1.518;2023-05-07T00:48:45;53.33;;;49.07;;
31808;SDS011;18379;48.208;-1.518;2023-05-07T00:53:45;53.30;;;48.97;;
31808;SDS011;18379;48.208;-1.518;2023-05-07T00:58:46;53.73;;;49.20;;
31808;SDS011;18379;48.208;-1.518;2023-05-07T01:03:48;52.10;;;48.07;;
31808;SDS011;18379;48.208;-1.518;2023-05-07T01:08:48;52.47;;;48.47;;
31808;SDS011;18379;48.208;-1.518;2023-05-07T01:13:51;55.40;;;50.57;;
31808;SDS011;18379;48.208;-1.518;2023-05-07T01:18:52;52.67;;;48.97;;
31808;SDS011;18379;48.208;-1.518;2023-05-07T01:23:53;53.93;;;49.83;;
31808;SDS011;18379;48.208;-1.518;2023-05-07T01:28:55;53.93;;;50.00;;
31808;SDS011;18379;48.208;-1.518;2023-05-07T01:33:55;52.77;;;48.90;;
31808;SDS011;18379;48.208;-1.518;2023-05-07T01:38:58;51.70;;;47.90;;
31808;SDS011;18379;48.208;-1.518;2023-05-07T01:43:59;50.07;;;46.77;;
31808;SDS011;18379;48.208;-1.518;2023-05-07T01:49:01;49.23;;;46.13;;
31808;SDS011;18379;48.208;-1.518;2023-05-07T01:54:02;49.33;;;46.23;;
31808;SDS011;18379;48.208;-1.518;2023-05-07T01:59:03;49.47;;;46.03;;
31808;SDS011;18379;48.208;-1.518;2023-05-07T02:04:04;49.67;;;46.20;;
31808;SDS011;18379;48.208;-1.518;2023-05-07T02:09:04;49.33;;;46.03;;
31808;SDS011;18379;48.208;-1.518;2023-05-07T02:14:05;50.07;;;46.50;;
31808;SDS011;18379;48.208;-1.518;2023-05-07T02:19:06;49.07;;;45.77;;
31808;SDS011;18379;48.208;-1.518;2023-05-07T02:24:07;49.37;;;46.17;;
31808;SDS011;18379;48.208;-1.518;2023-05-07T02:29:08;48.87;;;45.57;;
31808;SDS011;18379;48.208;-1.518;2023-05-07T02:34:12;51.63;;;48.20;;
31808;SDS011;18379;48.208;-1.518;2023-05-07T02:39:13;52.60;;;48.73;;
31808;SDS011;18379;48.208;-1.518;2023-05-07T02:44:15;53.93;;;49.47;;
31808;SDS011;18379;48.208;-1.518;2023-05-07T02:49:16;54.77;;;50.27;;
31808;SDS011;18379;48.208;-1.518;2023-05-07T02:54:17;56.63;;;51.83;;
31808;SDS011;18379;48.208;-1.518;2023-05-07T02:59:18;52.50;;;48.53;;
31808;SDS011;18379;48.208;-1.518;2023-05-07T03:04:18;55.57;;;50.83;;
31808;SDS011;18379;48.208;-1.518;2023-05-07T03:09:19;55.97;;;51.03;;
31808;SDS011;18379;48.208;-1.518;2023-05-07T03:14:20;52.80;;;48.70;;
31808;SDS011;18379;48.208;-1.518;2023-05-07T03:19:21;54.20;;;49.70;;
31808;SDS011;18379;48.208;-1.518;2023-05-07T03:24:21;52.87;;;48.73;;
31808;SDS011;18379;48.208;-1.518;2023-05-07T03:29:22;54.47;;;50.07;;
31808;SDS011;18379;48.208;-1.518;2023-05-07T03:34:23;53.53;;;49.40;;
31808;SDS011;18379;48.208;-1.518;2023-05-07T03:39:24;53.83;;;49.37;;
31808;SDS011;18379;48.208;-1.518;2023-05-07T03:44:25;53.77;;;49.57;;
31808;SDS011;18379;48.208;-1.518;2023-05-07T03:49:26;55.47;;;50.37;;
31808;SDS011;18379;48.208;-1.518;2023-05-07T03:54:26;55.80;;;51.10;;
31808;SDS011;18379;48.208;-1.518;2023-05-07T03:59:27;53.57;;;49.40;;
31808;SDS011;18379;48.208;-1.518;2023-05-07T04:04:28;52.63;;;48.07;;
31808;SDS011;18379;48.208;-1.518;2023-05-07T04:09:32;50.07;;;46.47;;
31808;SDS011;18379;48.208;-1.518;2023-05-07T04:14:33;50.77;;;47.07;;
31808;SDS011;18379;48.208;-1.518;2023-05-07T04:19:34;51.43;;;47.50;;
31808;SDS011;18379;48.208;-1.518;2023-05-07T04:24:35;51.17;;;47.17;;
31808;SDS011;18379;48.208;-1.518;2023-05-07T04:29:36;50.90;;;47.17;;
31808;SDS011;18379;48.208;-1.518;2023-05-07T04:34:36;51.37;;;47.43;;
31808;SDS011;18379;48.208;-1.518;2023-05-07T04:39:37;49.77;;;46.27;;
31808;SDS011;18379;48.208;-1.518;2023-05-07T04:44:38;51.10;;;47.30;;
31808;SDS011;18379;48.208;-1.518;2023-05-07T04:49:39;50.70;;;46.93;;
31808;SDS011;18379;48.208;-1.518;2023-05-07T04:54:41;51.30;;;47.63;;
31808;SDS011;18379;48.208;-1.518;2023-05-07T04:59:41;52.53;;;48.77;;
31808;SDS011;18379;48.208;-1.518;2023-05-07T05:04:42;53.40;;;49.13;;
31808;SDS011;18379;48.208;-1.518;2023-05-07T05:09:43;54.00;;;49.93;;
31808;SDS011;18379;48.208;-1.518;2023-05-07T05:14:45;54.00;;;49.73;;
31808;SDS011;18379;48.208;-1.518;2023-05-07T05:19:57;55.60;;;51.07;;
31808;SDS011;18379;48.208;-1.518;2023-05-07T05:25:02;51.13;;;47.37;;
31808;SDS011;18379;48.208;-1.518;2023-05-07T05:30:04;51.03;;;47.23;;
31808;SDS011;18379;48.208;-1.518;2023-05-07T05:35:06;50.87;;;47.30;;
31808;SDS011;18379;48.208;-1.518;2023-05-07T05:40:13;51.90;;;47.83;;
31808;SDS011;18379;48.208;-1.518;2023-05-07T05:45:14;52.87;;;48.97;;
31808;SDS011;18379;48.208;-1.518;2023-05-07T05:50:16;51.43;;;47.97;;
31808;SDS011;18379;48.208;-1.518;2023-05-07T05:55:26;52.47;;;48.97;;
31808;SDS011;18379;48.208;-1.518;2023-05-07T06:00:32;48.20;;;45.03;;
31808;SDS011;18379;48.208;-1.518;2023-05-07T06:05:41;47.67;;;44.87;;
31808;SDS011;18379;48.208;-1.518;2023-05-07T06:10:43;49.03;;;45.90;;
31808;SDS011;18379;48.208;-1.518;2023-05-07T06:15:44;54.10;;;50.17;;
31808;SDS011;18379;48.208;-1.518;2023-05-07T06:20:47;64.93;;;59.60;;
31808;SDS011;18379;48.208;-1.518;2023-05-07T06:25:50;66.53;;;60.93;;
31808;SDS011;18379;48.208;-1.518;2023-05-07T06:30:52;65.80;;;60.40;;
31808;SDS011;18379;48.208;-1.518;2023-05-07T06:35:53;67.20;;;61.40;;
31808;SDS011;18379;48.208;-1.518;2023-05-07T06:40:54;64.67;;;59.30;;
31808;SDS011;18379;48.208;-1.518;2023-05-07T06:45:58;66.27;;;60.87;;
31808;SDS011;18379;48.208;-1.518;2023-05-07T06:50:59;59.20;;;54.50;;
31808;SDS011;18379;48.208;-1.518;2023-05-07T06:56:06;54.33;;;49.60;;
31808;SDS011;18379;48.208;-1.518;2023-05-07T07:01:08;53.07;;;48.73;;
31808;SDS011;18379;48.208;-1.518;2023-05-07T07:06:15;54.33;;;49.90;;
31808;SDS011;18379;48.208;-1.518;2023-05-07T07:11:17;69.57;;;63.20;;
31808;SDS011;18379;48.208;-1.518;2023-05-07T07:16:21;71.60;;;65.23;;
31808;SDS011;18379;48.208;-1.518;2023-05-07T07:21:23;69.50;;;63.50;;
31808;SDS011;18379;48.208;-1.518;2023-05-07T07:26:30;56.87;;;52.37;;
31808;SDS011;18379;48.208;-1.518;2023-05-07T07:31:34;52.03;;;48.23;;
31808;SDS011;18379;48.208;-1.518;2023-05-07T07:36:37;51.53;;;47.63;;
31808;SDS011;18379;48.208;-1.518;2023-05-07T07:41:38;52.43;;;48.47;;
31808;SDS011;18379;48.208;-1.518;2023-05-07T07:46:43;53.43;;;49.17;;
31808;SDS011;18379;48.208;-1.518;2023-05-07T07:51:46;68.23;;;62.27;;
31808;SDS011;18379;48.208;-1.518;2023-05-07T07:56:47;67.63;;;61.80;;
31808;SDS011;18379;48.208;-1.518;2023-05-07T08:01:48;63.97;;;58.43;;
31808;SDS011;18379;48.208;-1.518;2023-05-07T08:06:50;66.07;;;60.50;;
31808;SDS011;18379;48.208;-1.518;2023-05-07T08:11:52;68.20;;;62.30;;
31808;SDS011;18379;48.208;-1.518;2023-05-07T08:16:56;65.90;;;60.67;;
31808;SDS011;18379;48.208;-1.518;2023-05-07T08:22:01;53.03;;;49.37;;
31808;SDS011;18379;48.208;-1.518;2023-05-07T08:27:05;51.70;;;48.00;;
31808;SDS011;18379;48.208;-1.518;2023-05-07T08:32:06;52.23;;;48.37;;
31808;SDS011;18379;48.208;-1.518;2023-05-07T08:37:08;51.47;;;48.00;;
31808;SDS011;18379;48.208;-1.518;2023-05-07T08:42:17;64.33;;;59.20;;
31808;SDS011;18379;48.208;-1.518;2023-05-07T08:47:19;62.50;;;57.70;;
31808;SDS011;18379;48.208;-1.518;2023-05-07T08:52:23;64.00;;;59.10;;
31808;SDS011;18379;48.208;-1.518;2023-05-07T08:57:24;63.63;;;58.63;;
31808;SDS011;18379;48.208;-1.518;2023-05-07T09:02:26;67.00;;;61.80;;
31808;SDS011;18379;48.208;-1.518;2023-05-07T09:07:27;65.40;;;60.40;;
31808;SDS011;18379;48.208;-1.518;2023-05-07T09:12:31;55.73;;;51.90;;
31808;SDS011;18379;48.208;-1.518;2023-05-07T09:17:35;50.13;;;46.80;;
31808;SDS011;18379;48.208;-1.518;2023-05-07T09:22:40;50.17;;;46.87;;
31808;SDS011;18379;48.208;-1.518;2023-05-07T09:27:48;53.23;;;49.63;;
31808;SDS011;18379;48.208;-1.518;2023-05-07T09:32:50;65.13;;;60.43;;
31808;SDS011;18379;48.208;-1.518;2023-05-07T09:37:57;65.90;;;61.10;;
31808;SDS011;18379;48.208;-1.518;2023-05-07T09:43:11;55.53;;;51.97;;
31808;SDS011;18379;48.208;-1.518;2023-05-07T09:48:15;54.57;;;50.73;;
31808;SDS011;18379;48.208;-1.518;2023-05-07T09:53:17;65.87;;;60.70;;
31808;SDS011;18379;48.208;-1.518;2023-05-07T09:58:21;67.20;;;62.20;;
31808;SDS011;18379;48.208;-1.518;2023-05-07T10:03:27;68.27;;;63.07;;
31808;SDS011;18379;48.208;-1.518;2023-05-07T10:08:31;53.43;;;50.03;;
31808;SDS011;18379;48.208;-1.518;2023-05-07T10:13:38;50.80;;;47.60;;
31808;SDS011;18379;48.208;-1.518;2023-05-07T10:19:02;52.60;;;49.27;;
31808;SDS011;18379;48.208;-1.518;2023-05-07T10:24:05;50.77;;;47.47;;
31808;SDS011;18379;48.208;-1.518;2023-05-07T10:35:14;51.40;;;48.07;;
31808;SDS011;18379;48.208;-1.518;2023-05-07T10:40:24;54.67;;;50.87;;
31808;SDS011;18379;48.208;-1.518;2023-05-07T10:45:32;52.33;;;48.73;;
31808;SDS011;18379;48.208;-1.518;2023-05-07T10:50:33;51.37;;;48.03;;
31808;SDS011;18379;48.208;-1.518;2023-05-07T10:55:34;51.80;;;48.50;;
31808;SDS011;18379;48.208;-1.518;2023-05-07T11:05:36;53.27;;;49.57;;
31808;SDS011;18379;48.208;-1.518;2023-05-07T11:10:53;51.63;;;48.17;;
31808;SDS011;18379;48.208;-1.518;2023-05-07T11:15:56;53.27;;;49.80;;
31808;SDS011;18379;48.208;-1.518;2023-05-07T11:21:09;54.10;;;50.30;;
31808;SDS011;18379;48.208;-1.518;2023-05-07T11:26:13;50.53;;;47.40;;
31808;SDS011;18379;48.208;-1.518;2023-05-07T11:31:14;52.70;;;49.10;;
31808;SDS011;18379;48.208;-1.518;2023-05-07T11:36:24;56.10;;;52.10;;
31808;SDS011;18379;48.208;-1.518;2023-05-07T11:41:36;54.43;;;50.47;;
31808;SDS011;18379;48.208;-1.518;2023-05-07T11:46:37;51.90;;;48.30;;
31808;SDS011;18379;48.208;-1.518;2023-05-07T11:51:49;55.73;;;51.57;;
31808;SDS011;18379;48.208;-1.518;2023-05-07T11:56:50;55.07;;;51.00;;
31808;SDS011;18379;48.208;-1.518;2023-05-07T12:01:51;56.17;;;51.77;;
31808;SDS011;18379;48.208;-1.518;2023-05-07T12:06:55;56.93;;;52.47;;
31808;SDS011;18379;48.208;-1.518;2023-05-07T12:11:55;54.93;;;50.63;;
31808;SDS011;18379;48.208;-1.518;2023-05-07T12:16:56;55.00;;;50.70;;
31808;SDS011;18379;48.208;-1.518;2023-05-07T12:21:57;54.03;;;50.30;;
31808;SDS011;18379;48.208;-1.518;2023-05-07T12:26:59;54.23;;;50.23;;
31808;SDS011;18379;48.208;-1.518;2023-05-07T12:32:00;52.40;;;48.63;;
31808;SDS011;18379;48.208;-1.518;2023-05-07T12:37:01;52.27;;;48.47;;
31808;SDS011;18379;48.208;-1.518;2023-05-07T12:42:03;51.67;;;48.10;;
31808;SDS011;18379;48.208;-1.518;2023-05-07T12:47:04;51.13;;;47.47;;
31808;SDS011;18379;48.208;-1.518;2023-05-07T12:52:05;51.67;;;48.27;;
31808;SDS011;18379;48.208;-1.518;2023-05-07T12:57:07;51.87;;;48.23;;
31808;SDS011;18379;48.208;-1.518;2023-05-07T13:02:09;51.73;;;48.20;;
31808;SDS011;18379;48.208;-1.518;2023-05-07T13:07:10;51.00;;;47.63;;
31808;SDS011;18379;48.208;-1.518;2023-05-07T13:12:11;51.53;;;48.00;;
31808;SDS011;18379;48.208;-1.518;2023-05-07T13:17:11;51.07;;;47.77;;
31808;SDS011;18379;48.208;-1.518;2023-05-07T13:22:12;51.90;;;48.37;;
31808;SDS011;18379;48.208;-1.518;2023-05-07T13:27:13;53.30;;;49.83;;
31808;SDS011;18379;48.208;-1.518;2023-05-07T13:32:14;52.83;;;49.40;;
31808;SDS011;18379;48.208;-1.518;2023-05-07T13:37:15;54.27;;;50.60;;
31808;SDS011;18379;48.208;-1.518;2023-05-07T13:42:16;56.43;;;52.67;;
31808;SDS011;18379;48.208;-1.518;2023-05-07T13:47:17;54.17;;;50.27;;
31808;SDS011;18379;48.208;-1.518;2023-05-07T13:52:17;54.43;;;50.63;;
31808;SDS011;18379;48.208;-1.518;2023-05-07T13:57:19;56.27;;;52.30;;
31808;SDS011;18379;48.208;-1.518;2023-05-07T14:02:20;58.00;;;54.00;;
31808;SDS011;18379;48.208;-1.518;2023-05-07T14:07:20;55.23;;;51.53;;
31808;SDS011;18379;48.208;-1.518;2023-05-07T14:12:21;55.67;;;51.83;;
31808;SDS011;18379;48.208;-1.518;2023-05-07T14:17:22;58.10;;;54.07;;
31808;SDS011;18379;48.208;-1.518;2023-05-07T14:22:25;55.27;;;51.37;;
31808;SDS011;18379;48.208;-1.518;2023-05-07T14:27:26;53.47;;;50.00;;
31808;SDS011;18379;48.208;-1.518;2023-05-07T14:32:26;53.17;;;49.70;;
31808;SDS011;18379;48.208;-1.518;2023-05-07T14:37:27;52.80;;;49.40;;
31808;SDS011;18379;48.208;-1.518;2023-05-07T14:42:31;53.53;;;49.93;;
31808;SDS011;18379;48.208;-1.518;2023-05-07T14:47:39;49.80;;;46.80;;
31808;SDS011;18379;48.208;-1.518;2023-05-07T14:52:48;53.07;;;49.37;;
31808;SDS011;18379;48.208;-1.518;2023-05-07T14:57:50;52.70;;;49.30;;
31808;SDS011;18379;48.208;-1.518;2023-05-07T15:02:51;53.03;;;49.37;;
31808;SDS011;18379;48.208;-1.518;2023-05-07T15:07:52;52.13;;;48.90;;
31808;SDS011;18379;48.208;-1.518;2023-05-07T15:12:53;54.30;;;50.53;;
31808;SDS011;18379;48.208;-1.518;2023-05-07T15:17:54;55.87;;;52.00;;
31808;SDS011;18379;48.208;-1.518;2023-05-07T15:22:55;54.87;;;51.07;;
31808;SDS011;18379;48.208;-1.518;2023-05-07T15:27:56;54.03;;;50.43;;
31808;SDS011;18379;48.208;-1.518;2023-05-07T15:32:57;54.27;;;50.63;;
31808;SDS011;18379;48.208;-1.518;2023-05-07T15:37:57;55.87;;;51.87;;
31808;SDS011;18379;48.208;-1.518;2023-05-07T15:42:58;56.40;;;52.30;;
31808;SDS011;18379;48.208;-1.518;2023-05-07T15:48:00;54.10;;;50.50;;
31808;SDS011;18379;48.208;-1.518;2023-05-07T15:53:01;53.47;;;49.73;;
31808;SDS011;18379;48.208;-1.518;2023-05-07T15:58:03;50.57;;;47.47;;
31808;SDS011;18379;48.208;-1.518;2023-05-07T16:03:05;52.20;;;48.70;;
31808;SDS011;18379;48.208;-1.518;2023-05-07T16:08:07;51.87;;;48.30;;
31808;SDS011;18379;48.208;-1.518;2023-05-07T16:13:08;50.53;;;47.33;;
31808;SDS011;18379;48.208;-1.518;2023-05-07T16:18:12;51.93;;;48.53;;
31808;SDS011;18379;48.208;-1.518;2023-05-07T16:23:15;56.30;;;52.43;;
31808;SDS011;18379;48.208;-1.518;2023-05-07T16:28:16;56.20;;;52.00;;
31808;SDS011;18379;48.208;-1.518;2023-05-07T16:33:17;56.40;;;52.23;;
31808;SDS011;18379;48.208;-1.518;2023-05-07T16:38:19;55.90;;;51.67;;
31808;SDS011;18379;48.208;-1.518;2023-05-07T16:43:19;55.23;;;51.40;;
31808;SDS011;18379;48.208;-1.518;2023-05-07T16:48:20;57.50;;;53.20;;
31808;SDS011;18379;48.208;-1.518;2023-05-07T16:53:21;67.80;;;62.63;;
31808;SDS011;18379;48.208;-1.518;2023-05-07T16:58:22;68.63;;;63.53;;
31808;SDS011;18379;48.208;-1.518;2023-05-07T17:03:23;67.97;;;62.60;;
31808;SDS011;18379;48.208;-1.518;2023-05-07T17:08:24;68.63;;;63.43;;
31808;SDS011;18379;48.208;-1.518;2023-05-07T17:13:25;65.60;;;60.70;;
31808;SDS011;18379;48.208;-1.518;2023-05-07T17:18:25;54.80;;;50.77;;
31808;SDS011;18379;48.208;-1.518;2023-05-07T17:23:26;59.47;;;54.73;;
31808;SDS011;18379;48.208;-1.518;2023-05-07T17:28:28;55.80;;;51.80;;
31808;SDS011;18379;48.208;-1.518;2023-05-07T17:33:29;63.53;;;58.77;;
31808;SDS011;18379;48.208;-1.518;2023-05-07T17:38:29;63.57;;;58.53;;
31808;SDS011;18379;48.208;-1.518;2023-05-07T17:43:31;53.80;;;49.90;;
31808;SDS011;18379;48.208;-1.518;2023-05-07T17:48:32;52.23;;;48.73;;
31808;SDS011;18379;48.208;-1.518;2023-05-07T17:53:32;52.47;;;48.93;;
31808;SDS011;18379;48.208;-1.518;2023-05-07T17:58:33;55.97;;;51.83;;
31808;SDS011;18379;48.208;-1.518;2023-05-07T18:03:34;51.87;;;48.30;;
31808;SDS011;18379;48.208;-1.518;2023-05-07T18:08:36;51.87;;;48.20;;
31808;SDS011;18379;48.208;-1.518;2023-05-07T18:13:37;51.70;;;48.00;;
31808;SDS011;18379;48.208;-1.518;2023-05-07T18:18:38;51.60;;;48.00;;
31808;SDS011;18379;48.208;-1.518;2023-05-07T18:23:39;49.80;;;46.70;;
31808;SDS011;18379;48.208;-1.518;2023-05-07T18:28:40;51.80;;;48.30;;
31808;SDS011;18379;48.208;-1.518;2023-05-07T18:33:42;49.97;;;46.50;;
31808;SDS011;18379;48.208;-1.518;2023-05-07T18:38:43;50.47;;;46.73;;
31808;SDS011;18379;48.208;-1.518;2023-05-07T18:43:46;50.10;;;46.50;;
31808;SDS011;18379;48.208;-1.518;2023-05-07T18:48:50;49.77;;;46.30;;
31808;SDS011;18379;48.208;-1.518;2023-05-07T18:53:52;51.37;;;47.73;;
31808;SDS011;18379;48.208;-1.518;2023-05-07T18:58:54;56.53;;;51.87;;
31808;SDS011;18379;48.208;-1.518;2023-05-07T19:03:55;53.07;;;49.00;;
31808;SDS011;18379;48.208;-1.518;2023-05-07T19:08:56;53.10;;;49.07;;
31808;SDS011;18379;48.208;-1.518;2023-05-07T19:13:58;54.47;;;50.13;;
31808;SDS011;18379;48.208;-1.518;2023-05-07T19:18:59;51.77;;;47.80;;
31808;SDS011;18379;48.208;-1.518;2023-05-07T19:24:00;51.27;;;47.53;;
31808;SDS011;18379;48.208;-1.518;2023-05-07T19:29:01;50.70;;;47.00;;
31808;SDS011;18379;48.208;-1.518;2023-05-07T19:34:02;51.50;;;47.53;;
31808;SDS011;18379;48.208;-1.518;2023-05-07T19:39:03;52.57;;;48.60;;
31808;SDS011;18379;48.208;-1.518;2023-05-07T19:44:04;50.93;;;47.30;;
31808;SDS011;18379;48.208;-1.518;2023-05-07T19:49:05;51.10;;;47.20;;
31808;SDS011;18379;48.208;-1.518;2023-05-07T19:54:06;52.17;;;48.17;;
31808;SDS011;18379;48.208;-1.518;2023-05-07T19:59:07;51.40;;;47.70;;
31808;SDS011;18379;48.208;-1.518;2023-05-07T20:04:08;52.50;;;48.63;;
31808;SDS011;18379;48.208;-1.518;2023-05-07T20:09:09;52.37;;;48.17;;
31808;SDS011;18379;48.208;-1.518;2023-05-07T20:14:11;49.97;;;46.37;;
31808;SDS011;18379;48.208;-1.518;2023-05-07T20:19:12;51.17;;;47.20;;
31808;SDS011;18379;48.208;-1.518;2023-05-07T20:24:13;49.77;;;45.90;;
31808;SDS011;18379;48.208;-1.518;2023-05-07T20:29:14;47.43;;;44.23;;
31808;SDS011;18379;48.208;-1.518;2023-05-07T20:34:14;54.77;;;50.70;;
31808;SDS011;18379;48.208;-1.518;2023-05-07T20:39:15;48.50;;;45.00;;
31808;SDS011;18379;48.208;-1.518;2023-05-07T20:44:16;51.83;;;48.20;;
31808;SDS011;18379;48.208;-1.518;2023-05-07T20:49:18;49.27;;;45.23;;
31808;SDS011;18379;48.208;-1.518;2023-05-07T20:54:20;47.90;;;44.77;;
31808;SDS011;18379;48.208;-1.518;2023-05-07T20:59:22;48.63;;;44.60;;
31808;SDS011;18379;48.208;-1.518;2023-05-07T21:04:23;49.17;;;45.57;;
31808;SDS011;18379;48.208;-1.518;2023-05-07T21:09:24;50.27;;;46.77;;
31808;SDS011;18379;48.208;-1.518;2023-05-07T21:14:25;54.10;;;50.07;;
31808;SDS011;18379;48.208;-1.518;2023-05-07T21:19:26;57.27;;;52.67;;
31808;SDS011;18379;48.208;-1.518;2023-05-07T21:24:27;59.33;;;54.30;;
31808;SDS011;18379;48.208;-1.518;2023-05-07T21:29:27;63.80;;;58.30;;
31808;SDS011;18379;48.208;-1.518;2023-05-07T21:34:29;63.03;;;57.93;;
31808;SDS011;18379;48.208;-1.518;2023-05-07T21:39:29;62.97;;;57.77;;
31808;SDS011;18379;48.208;-1.518;2023-05-07T21:44:30;65.10;;;59.40;;
31808;SDS011;18379;48.208;-1.518;2023-05-07T21:49:31;59.83;;;54.60;;
31808;SDS011;18379;48.208;-1.518;2023-05-07T21:54:32;64.07;;;58.57;;
31808;SDS011;18379;48.208;-1.518;2023-05-07T21:59:33;65.23;;;59.00;;
31808;SDS011;18379;48.208;-1.518;2023-05-07T22:04:33;64.47;;;59.17;;
31808;SDS011;18379;48.208;-1.518;2023-05-07T22:09:34;64.60;;;59.10;;
31808;SDS011;18379;48.208;-1.518;2023-05-07T22:14:35;63.87;;;58.47;;
31808;SDS011;18379;48.208;-1.518;2023-05-07T22:19:36;62.60;;;57.53;;
31808;SDS011;18379;48.208;-1.518;2023-05-07T22:24:36;65.00;;;59.70;;
31808;SDS011;18379;48.208;-1.518;2023-05-07T22:29:37;65.03;;;59.40;;
31808;SDS011;18379;48.208;-1.518;2023-05-07T22:34:38;65.70;;;60.33;;
31808;SDS011;18379;48.208;-1.518;2023-05-07T22:39:39;64.50;;;59.07;;
31808;SDS011;18379;48.208;-1.518;2023-05-07T22:44:41;66.80;;;60.77;;
31808;SDS011;18379;48.208;-1.518;2023-05-07T22:49:42;57.60;;;52.83;;
31808;SDS011;18379;48.208;-1.518;2023-05-07T22:54:43;53.03;;;48.93;;
31808;SDS011;18379;48.208;-1.518;2023-05-07T22:59:43;49.50;;;45.83;;
31808;SDS011;18379;48.208;-1.518;2023-05-07T23:04:44;49.30;;;45.90;;
31808;SDS011;18379;48.208;-1.518;2023-05-07T23:09:45;46.67;;;43.60;;
31808;SDS011;18379;48.208;-1.518;2023-05-07T23:14:46;47.60;;;44.20;;
31808;SDS011;18379;48.208;-1.518;2023-05-07T23:19:47;46.63;;;43.53;;
31808;SDS011;18379;48.208;-1.518;2023-05-07T23:24:47;46.80;;;43.90;;
31808;SDS011;18379;48.208;-1.518;2023-05-07T23:29:48;47.73;;;44.37;;
31808;SDS011;18379;48.208;-1.518;2023-05-07T23:34:50;46.70;;;43.40;;
31808;SDS011;18379;48.208;-1.518;2023-05-07T23:39:52;46.90;;;43.70;;
31808;SDS011;18379;48.208;-1.518;2023-05-07T23:44:54;49.07;;;45.10;;
31808;SDS011;18379;48.208;-1.518;2023-05-07T23:49:54;47.43;;;43.90;;
31808;SDS011;18379;48.208;-1.518;2023-05-07T23:54:55;48.53;;;44.97;;
31808;SDS011;18379;48.208;-1.518;2023-05-07T23:59:56;50.83;;;47.10;;
